sensor_id;sensor_type;location;lat;lon;timestamp;pressure;altitude;pressure_sealevel;temperature;humidity
5574;BME280;2563;52.242;7.956;2024-03-23T00:53:21;99434.47;;;7.22;100.00
5574;BME280;2563;52.242;7.956;2024-03-23T00:55:47;99428.56;;;7.20;100.00
5574;BME280;2563;52.242;7.956;2024-03-23T00:58:12;99423.63;;;7.14;100.00
5574;BME280;2563;52.242;7.956;2024-03-23T01:00:37;99427.97;;;7.10;100.00
5574;BME280;2563;52.242;7.956;2024-03-23T01:03:03;99430.56;;;7.09;100.00
5574;BME280;2563;52.242;7.956;2024-03-23T01:05:28;99435.69;;;7.09;100.00
5574;BME280;2563;52.242;7.956;2024-03-23T01:07:53;99430.75;;;7.02;100.00
5574;BME280;2563;52.242;7.956;2024-03-23T01:10:19;99441.13;;;6.96;100.00
5574;BME280;2563;52.242;7.956;2024-03-23T01:12:44;99444.63;;;6.94;100.00
5574;BME280;2563;52.242;7.956;2024-03-23T01:15:09;99442.84;;;6.97;100.00
5574;BME280;2563;52.242;7.956;2024-03-23T01:17:35;99445.47;;;6.94;100.00
5574;BME280;2563;52.242;7.956;2024-03-23T01:20:00;99442.84;;;6.97;100.00
5574;BME280;2563;52.242;7.956;2024-03-23T01:22:26;99442.03;;;6.95;100.00
5574;BME280;2563;52.242;7.956;2024-03-23T01:24:51;99441.13;;;6.96;100.00
5574;BME280;2563;52.242;7.956;2024-03-23T01:27:16;99444.50;;;6.98;100.00
5574;BME280;2563;52.242;7.956;2024-03-23T01:29:42;99444.41;;;7.01;100.00
5574;BME280;2563;52.242;7.956;2024-03-23T01:32:07;99438.31;;;7.07;100.00
5574;BME280;2563;52.242;7.956;2024-03-23T01:34:32;99439.97;;;7.08;100.00
5574;BME280;2563;52.242;7.956;2024-03-23T01:36:58;99445.22;;;7.03;100.00
5574;BME280;2563;52.242;7.956;2024-03-23T01:39:24;99447.94;;;6.97;100.00
5574;BME280;2563;52.242;7.956;2024-03-23T01:41:49;99449.53;;;7.01;100.00
5574;BME280;2563;52.242;7.956;2024-03-23T01:44:15;99450.53;;;6.96;100.00
5574;BME280;2563;52.242;7.956;2024-03-23T01:46:41;99443.75;;;6.95;100.00
5574;BME280;2563;52.242;7.956;2024-03-23T01:49:07;99437.66;;;6.99;100.00
5574;BME280;2563;52.242;7.956;2024-03-23T01:51:33;99439.38;;;6.98;100.00
5574;BME280;2563;52.242;7.956;2024-03-23T01:54:01;99448.81;;;6.96;100.00
5574;BME280;2563;52.242;7.956;2024-03-23T01:56:29;99440.31;;;6.96;100.00
5574;BME280;2563;52.242;7.956;2024-03-23T01:58:55;99443.69;;;6.96;100.00
5574;BME280;2563;52.242;7.956;2024-03-23T02:01:20;99447.88;;;6.99;100.00
5574;BME280;2563;52.242;7.956;2024-03-23T02:03:46;99445.75;;;6.84;100.00
5574;BME280;2563;52.242;7.956;2024-03-23T02:06:11;99439.97;;;6.77;100.00
5574;BME280;2563;52.242;7.956;2024-03-23T02:08:36;99445.25;;;6.71;100.00
5574;BME280;2563;52.242;7.956;2024-03-23T02:11:02;99435.84;;;6.71;100.00
5574;BME280;2563;52.242;7.956;2024-03-23T02:13:27;99441.09;;;6.67;100.00
5574;BME280;2563;52.242;7.956;2024-03-23T02:15:53;99435.88;;;6.70;100.00
5574;BME280;2563;52.242;7.956;2024-03-23T02:18:18;99427.38;;;6.69;100.00
5574;BME280;2563;52.242;7.956;2024-03-23T02:20:43;99423.44;;;6.57;100.00
5574;BME280;2563;52.242;7.956;2024-03-23T02:23:16;99430.47;;;6.49;100.00
5574;BME280;2563;52.242;7.956;2024-03-23T02:25:41;99432.00;;;6.56;100.00
5574;BME280;2563;52.242;7.956;2024-03-23T02:28:07;99430.25;;;6.58;100.00
5574;BME280;2563;52.242;7.956;2024-03-23T02:30:33;99438.94;;;6.51;100.00
5574;BME280;2563;52.242;7.956;2024-03-23T02:32:58;99431.56;;;6.39;100.00
5574;BME280;2563;52.242;7.956;2024-03-23T02:35:23;99445.25;;;6.36;100.00
5574;BME280;2563;52.242;7.956;2024-03-23T02:37:49;99436.66;;;6.39;100.00
5574;BME280;2563;52.242;7.956;2024-03-23T02:40:15;99431.56;;;6.39;100.00
5574;BME280;2563;52.242;7.956;2024-03-23T02:42:40;99435.94;;;6.34;100.00
5574;BME280;2563;52.242;7.956;2024-03-23T02:45:06;99430.00;;;6.33;100.00
5574;BME280;2563;52.242;7.956;2024-03-23T02:47:32;99424.91;;;6.33;100.00
5574;BME280;2563;52.242;7.956;2024-03-23T02:49:57;99438.69;;;6.28;100.00
5574;BME280;2563;52.242;7.956;2024-03-23T02:52:23;99442.81;;;6.32;100.00
5574;BME280;2563;52.242;7.956;2024-03-23T02:54:48;99432.69;;;6.29;100.00
5574;BME280;2563;52.242;7.956;2024-03-23T02:57:13;99434.38;;;6.30;100.00
5574;BME280;2563;52.242;7.956;2024-03-23T02:59:39;99430.91;;;6.32;100.00
5574;BME280;2563;52.242;7.956;2024-03-23T03:02:05;99432.59;;;6.32;100.00
5574;BME280;2563;52.242;7.956;2024-03-23T03:04:30;99426.72;;;6.28;100.00
5574;BME280;2563;52.242;7.956;2024-03-23T03:06:56;99429.25;;;6.30;100.00
5574;BME280;2563;52.242;7.956;2024-03-23T03:09:21;99428.44;;;6.28;100.00
5574;BME280;2563;52.242;7.956;2024-03-23T03:11:46;99424.19;;;6.27;100.00
5574;BME280;2563;52.242;7.956;2024-03-23T03:14:12;99419.09;;;6.27;100.00
5574;BME280;2563;52.242;7.956;2024-03-23T03:16:37;99422.56;;;6.24;100.00
5574;BME280;2563;52.242;7.956;2024-03-23T03:19:03;99425.03;;;6.27;100.00
5574;BME280;2563;52.242;7.956;2024-03-23T03:21:28;99427.72;;;6.23;100.00
5574;BME280;2563;52.242;7.956;2024-03-23T03:23:54;99434.50;;;6.24;100.00
5574;BME280;2563;52.242;7.956;2024-03-23T03:26:21;99427.66;;;6.26;100.00
5574;BME280;2563;52.242;7.956;2024-03-23T03:28:47;99415.72;;;6.25;100.00
5574;BME280;2563;52.242;7.956;2024-03-23T03:31:17;99412.44;;;6.21;100.00
5574;BME280;2563;52.242;7.956;2024-03-23T03:33:43;99412.41;;;6.23;100.00
5574;BME280;2563;52.242;7.956;2024-03-23T03:36:09;99416.53;;;6.27;100.00
5574;BME280;2563;52.242;7.956;2024-03-23T03:38:34;99408.88;;;6.27;100.00
5574;BME280;2563;52.242;7.956;2024-03-23T03:41:04;99410.47;;;6.31;100.00
5574;BME280;2563;52.242;7.956;2024-03-23T03:43:29;99404.53;;;6.30;100.00
5574;BME280;2563;52.242;7.956;2024-03-23T03:45:56;99412.16;;;6.32;100.00
5574;BME280;2563;52.242;7.956;2024-03-23T03:48:22;99411.31;;;6.31;100.00
5574;BME280;2563;52.242;7.956;2024-03-23T03:50:48;99420.69;;;6.31;100.00
5574;BME280;2563;52.242;7.956;2024-03-23T03:53:13;99429.97;;;6.35;100.00
5574;BME280;2563;52.242;7.956;2024-03-23T03:55:39;99433.44;;;6.32;100.00
5574;BME280;2563;52.242;7.956;2024-03-23T03:58:04;99402.72;;;6.34;100.00
5574;BME280;2563;52.242;7.956;2024-03-23T04:00:30;99398.50;;;6.33;100.00
5574;BME280;2563;52.242;7.956;2024-03-23T04:02:55;99405.28;;;6.34;100.00
5574;BME280;2563;52.242;7.956;2024-03-23T04:05:21;99404.44;;;6.35;100.00
5574;BME280;2563;52.242;7.956;2024-03-23T04:07:46;99401.88;;;6.35;100.00
5574;BME280;2563;52.242;7.956;2024-03-23T04:10:12;99396.81;;;6.32;100.00
5574;BME280;2563;52.242;7.956;2024-03-23T04:12:37;99395.16;;;6.31;100.00
5574;BME280;2563;52.242;7.956;2024-03-23T04:15:03;99409.66;;;6.30;100.00
5574;BME280;2563;52.242;7.956;2024-03-23T04:17:31;99410.56;;;6.28;100.00
5574;BME280;2563;52.242;7.956;2024-03-23T04:20:00;99401.31;;;6.22;100.00
5574;BME280;2563;52.242;7.956;2024-03-23T04:22:27;99393.63;;;6.24;100.00
5574;BME280;2563;52.242;7.956;2024-03-23T04:24:56;99398.72;;;6.25;100.00
5574;BME280;2563;52.242;7.956;2024-03-23T04:27:22;99390.13;;;6.28;100.00
5574;BME280;2563;52.242;7.956;2024-03-23T04:29:49;99388.38;;;6.30;100.00
5574;BME280;2563;52.242;7.956;2024-03-23T04:32:14;99408.88;;;6.27;100.00
5574;BME280;2563;52.242;7.956;2024-03-23T04:34:40;99411.50;;;6.24;100.00
5574;BME280;2563;52.242;7.956;2024-03-23T04:37:05;99410.56;;;6.28;100.00
5574;BME280;2563;52.242;7.956;2024-03-23T04:39:30;99412.31;;;6.26;100.00
5574;BME280;2563;52.242;7.956;2024-03-23T04:41:56;99410.78;;;6.18;100.00
5574;BME280;2563;52.242;7.956;2024-03-23T04:44:21;99405.69;;;6.18;100.00
5574;BME280;2563;52.242;7.956;2024-03-23T04:46:47;99400.69;;;6.14;100.00
5574;BME280;2563;52.242;7.956;2024-03-23T04:49:12;99400.78;;;6.11;100.00
5574;BME280;2563;52.242;7.956;2024-03-23T04:51:37;99408.44;;;6.11;100.00
5574;BME280;2563;52.242;7.956;2024-03-23T04:54:03;99401.75;;;6.05;100.00
5574;BME280;2563;52.242;7.956;2024-03-23T04:56:29;99399.19;;;6.05;100.00
5574;BME280;2563;52.242;7.956;2024-03-23T04:58:55;99394.03;;;6.08;100.00
5574;BME280;2563;52.242;7.956;2024-03-23T05:01:26;99393.16;;;6.08;100.00
5574;BME280;2563;52.242;7.956;2024-03-23T05:03:51;99388.06;;;6.08;100.00
5574;BME280;2563;52.242;7.956;2024-03-23T05:06:18;99389.84;;;6.06;100.00
5574;BME280;2563;52.242;7.956;2024-03-23T05:08:43;99391.50;;;6.07;100.00
5574;BME280;2563;52.242;7.956;2024-03-23T05:11:08;99395.78;;;6.05;100.00
5574;BME280;2563;52.242;7.956;2024-03-23T05:13:34;99393.31;;;6.02;100.00
5574;BME280;2563;52.242;7.956;2024-03-23T05:15:59;99406.19;;;5.97;100.00
5574;BME280;2563;52.242;7.956;2024-03-23T05:18:24;99407.94;;;5.95;100.00
5574;BME280;2563;52.242;7.956;2024-03-23T05:20:56;99403.84;;;5.88;100.00
5574;BME280;2563;52.242;7.956;2024-03-23T05:23:21;99404.66;;;5.88;100.00
5574;BME280;2563;52.242;7.956;2024-03-23T05:25:47;99409.97;;;5.79;100.00
5574;BME280;2563;52.242;7.956;2024-03-23T05:28:12;99408.41;;;5.73;100.00
5574;BME280;2563;52.242;7.956;2024-03-23T05:30:38;99403.31;;;5.73;100.00
5574;BME280;2563;52.242;7.956;2024-03-23T05:33:03;99406.88;;;5.66;100.00
5574;BME280;2563;52.242;7.956;2024-03-23T05:35:29;99390.69;;;5.67;100.00
5574;BME280;2563;52.242;7.956;2024-03-23T05:37:54;99401.84;;;5.63;100.00
5574;BME280;2563;52.242;7.956;2024-03-23T05:40:19;99394.25;;;5.60;100.00
5574;BME280;2563;52.242;7.956;2024-03-23T05:42:44;99394.19;;;5.63;100.00
5574;BME280;2563;52.242;7.956;2024-03-23T05:45:10;99401.91;;;5.60;100.00
5574;BME280;2563;52.242;7.956;2024-03-23T05:47:36;99391.69;;;5.60;100.00
5574;BME280;2563;52.242;7.956;2024-03-23T05:50:01;99401.88;;;5.62;100.00
5574;BME280;2563;52.242;7.956;2024-03-23T05:52:27;99394.19;;;5.63;100.00
5574;BME280;2563;52.242;7.956;2024-03-23T05:54:53;99394.19;;;5.63;100.00
5574;BME280;2563;52.242;7.956;2024-03-23T05:57:18;99390.81;;;5.63;100.00
5574;BME280;2563;52.242;7.956;2024-03-23T05:59:44;99393.38;;;5.61;100.00
5574;BME280;2563;52.242;7.956;2024-03-23T06:02:09;99395.03;;;5.62;100.00
5574;BME280;2563;52.242;7.956;2024-03-23T06:04:35;99404.53;;;5.57;100.00
5574;BME280;2563;52.242;7.956;2024-03-23T06:07:01;99409.50;;;5.63;100.00
5574;BME280;2563;52.242;7.956;2024-03-23T06:09:26;99413.72;;;5.64;100.00
5574;BME280;2563;52.242;7.956;2024-03-23T06:11:52;99412.91;;;5.64;100.00
5574;BME280;2563;52.242;7.956;2024-03-23T06:14:17;99412.00;;;5.65;100.00
5574;BME280;2563;52.242;7.956;2024-03-23T06:16:42;99405.06;;;5.71;100.00
5574;BME280;2563;52.242;7.956;2024-03-23T06:19:08;99399.94;;;5.73;100.00
5574;BME280;2563;52.242;7.956;2024-03-23T06:21:33;99395.53;;;5.78;100.00
5574;BME280;2563;52.242;7.956;2024-03-23T06:23:59;99397.00;;;6.24;100.00
5574;BME280;2563;52.242;7.956;2024-03-23T06:26:24;99384.09;;;6.30;100.00
5574;BME280;2563;52.242;7.956;2024-03-23T06:28:49;99372.84;;;7.84;100.00
5574;BME280;2563;52.242;7.956;2024-03-23T06:31:15;99352.25;;;8.64;100.00
5574;BME280;2563;52.242;7.956;2024-03-23T06:33:40;99374.78;;;7.50;100.00
5574;BME280;2563;52.242;7.956;2024-03-23T06:36:09;99350.97;;;7.74;100.00
5574;BME280;2563;52.242;7.956;2024-03-23T06:38:35;99352.50;;;7.52;100.00
5574;BME280;2563;52.242;7.956;2024-03-23T06:41:04;99299.84;;;9.59;100.00
5574;BME280;2563;52.242;7.956;2024-03-23T06:43:30;99289.75;;;9.77;100.00
5574;BME280;2563;52.242;7.956;2024-03-23T06:45:55;99262.44;;;10.55;100.00
5574;BME280;2563;52.242;7.956;2024-03-23T06:48:21;99301.44;;;9.84;100.00
5574;BME280;2563;52.242;7.956;2024-03-23T06:50:46;99414.94;;;9.04;100.00
5574;BME280;2563;52.242;7.956;2024-03-23T06:53:12;99467.94;;;10.20;100.00
5574;BME280;2563;52.242;7.956;2024-03-23T06:55:38;99554.47;;;9.75;100.00
5574;BME280;2563;52.242;7.956;2024-03-23T06:58:03;99632.41;;;8.46;100.00
5574;BME280;2563;52.242;7.956;2024-03-23T07:00:29;99646.97;;;8.44;100.00
5574;BME280;2563;52.242;7.956;2024-03-23T07:02:55;99650.75;;;9.65;100.00
5574;BME280;2563;52.242;7.956;2024-03-23T07:05:20;99654.19;;;11.02;100.00
5574;BME280;2563;52.242;7.956;2024-03-23T07:07:45;99694.50;;;11.87;100.00
5574;BME280;2563;52.242;7.956;2024-03-23T07:10:11;99732.66;;;11.79;100.00
5574;BME280;2563;52.242;7.956;2024-03-23T07:12:36;99789.63;;;10.12;100.00
5574;BME280;2563;52.242;7.956;2024-03-23T07:15:02;99821.13;;;9.12;100.00
5574;BME280;2563;52.242;7.956;2024-03-23T07:17:27;99815.97;;;9.94;100.00
5574;BME280;2563;52.242;7.956;2024-03-23T07:19:53;99816.94;;;10.89;100.00
5574;BME280;2563;52.242;7.956;2024-03-23T07:22:18;99839.06;;;9.69;100.00
5574;BME280;2563;52.242;7.956;2024-03-23T07:24:43;99822.25;;;12.35;100.00
5574;BME280;2563;52.242;7.956;2024-03-23T07:27:09;99838.25;;;13.57;100.00
5574;BME280;2563;52.242;7.956;2024-03-23T07:29:35;99896.06;;;12.19;100.00
5574;BME280;2563;52.242;7.956;2024-03-23T07:32:01;99894.03;;;13.25;100.00
5574;BME280;2563;52.242;7.956;2024-03-23T07:34:26;99913.13;;;13.22;100.00
5574;BME280;2563;52.242;7.956;2024-03-23T07:36:52;99944.00;;;10.88;100.00
5574;BME280;2563;52.242;7.956;2024-03-23T07:39:17;99926.81;;;13.43;100.00
5574;BME280;2563;52.242;7.956;2024-03-23T07:41:46;99937.47;;;13.16;100.00
5574;BME280;2563;52.242;7.956;2024-03-23T07:44:11;99951.63;;;13.28;100.00
5574;BME280;2563;52.242;7.956;2024-03-23T07:46:37;99978.84;;;11.21;100.00
5574;BME280;2563;52.242;7.956;2024-03-23T07:49:04;99970.63;;;12.25;100.00
5574;BME280;2563;52.242;7.956;2024-03-23T07:51:29;99978.03;;;12.12;100.00
5574;BME280;2563;52.242;7.956;2024-03-23T07:53:55;99980.94;;;12.04;100.00
5574;BME280;2563;52.242;7.956;2024-03-23T07:56:20;99985.56;;;12.59;100.00
5574;BME280;2563;52.242;7.956;2024-03-23T07:58:47;99985.66;;;13.57;100.00
5574;BME280;2563;52.242;7.956;2024-03-23T08:01:14;99976.97;;;12.99;100.00
5574;BME280;2563;52.242;7.956;2024-03-23T08:03:42;99971.66;;;14.16;100.00
5574;BME280;2563;52.242;7.956;2024-03-23T08:06:11;99981.09;;;12.83;100.00
5574;BME280;2563;52.242;7.956;2024-03-23T08:08:38;99986.16;;;12.86;100.00
5574;BME280;2563;52.242;7.956;2024-03-23T08:11:03;99996.75;;;13.59;100.00
5574;BME280;2563;52.242;7.956;2024-03-23T08:13:30;100004.94;;;12.90;100.00
5574;BME280;2563;52.242;7.956;2024-03-23T08:15:59;100011.75;;;10.36;100.00
5574;BME280;2563;52.242;7.956;2024-03-23T08:18:25;100013.56;;;10.05;100.00
5574;BME280;2563;52.242;7.956;2024-03-23T08:23:27;99999.91;;;9.46;100.00
5574;BME280;2563;52.242;7.956;2024-03-23T08:25:57;99989.97;;;9.34;100.00
5574;BME280;2563;52.242;7.956;2024-03-23T08:28:22;99989.84;;;8.75;100.00
5574;BME280;2563;52.242;7.956;2024-03-23T08:30:48;99981.59;;;8.96;100.00
5574;BME280;2563;52.242;7.956;2024-03-23T08:33:14;99987.06;;;8.82;100.00
5574;BME280;2563;52.242;7.956;2024-03-23T08:35:41;99974.94;;;9.50;100.00
5574;BME280;2563;52.242;7.956;2024-03-23T08:38:06;99964.34;;;10.43;100.00
5574;BME280;2563;52.242;7.956;2024-03-23T08:40:31;99990.38;;;9.19;100.00
5574;BME280;2563;52.242;7.956;2024-03-23T08:42:57;99988.47;;;8.61;100.00
5574;BME280;2563;52.242;7.956;2024-03-23T08:45:22;99972.78;;;9.05;100.00
5574;BME280;2563;52.242;7.956;2024-03-23T08:47:47;99975.50;;;9.31;100.00
5574;BME280;2563;52.242;7.956;2024-03-23T08:50:13;99971.59;;;9.16;100.00
5574;BME280;2563;52.242;7.956;2024-03-23T08:52:38;99979.44;;;9.12;100.00
5574;BME280;2563;52.242;7.956;2024-03-23T08:55:04;99976.72;;;9.16;100.00
5574;BME280;2563;52.242;7.956;2024-03-23T08:57:29;99988.91;;;8.77;100.00
5574;BME280;2563;52.242;7.956;2024-03-23T08:59:55;99991.41;;;8.46;100.00
5574;BME280;2563;52.242;7.956;2024-03-23T09:02:20;99978.50;;;8.49;100.00
5574;BME280;2563;52.242;7.956;2024-03-23T09:04:45;99990.78;;;8.72;100.00
5574;BME280;2563;52.242;7.956;2024-03-23T09:07:11;99990.28;;;8.90;100.00
5574;BME280;2563;52.242;7.956;2024-03-23T09:09:38;99996.38;;;8.86;100.00
5574;BME280;2563;52.242;7.956;2024-03-23T09:12:04;100004.81;;;8.91;100.00
5574;BME280;2563;52.242;7.956;2024-03-23T09:14:30;100004.75;;;8.93;100.00
5574;BME280;2563;52.242;7.956;2024-03-23T09:16:55;100004.97;;;9.16;100.00
5574;BME280;2563;52.242;7.956;2024-03-23T09:19:20;100002.41;;;9.16;100.00
5574;BME280;2563;52.242;7.956;2024-03-23T09:21:45;100017.19;;;8.76;100.00
5574;BME280;2563;52.242;7.956;2024-03-23T09:24:11;99997.78;;;8.98;100.00
5574;BME280;2563;52.242;7.956;2024-03-23T09:26:36;100001.53;;;9.18;100.00
5574;BME280;2563;52.242;7.956;2024-03-23T09:29:01;100005.34;;;8.71;100.00
5574;BME280;2563;52.242;7.956;2024-03-23T09:31:27;100003.66;;;8.69;100.00
5574;BME280;2563;52.242;7.956;2024-03-23T09:33:52;99997.75;;;8.67;100.00
5574;BME280;2563;52.242;7.956;2024-03-23T09:36:18;100005.00;;;8.49;100.00
5574;BME280;2563;52.242;7.956;2024-03-23T09:38:43;99996.28;;;8.57;100.00
5574;BME280;2563;52.242;7.956;2024-03-23T09:41:09;99991.38;;;8.82;100.00
5574;BME280;2563;52.242;7.956;2024-03-23T09:43:35;99993.66;;;9.24;100.00
5574;BME280;2563;52.242;7.956;2024-03-23T09:46:03;99999.81;;;9.18;100.00
5574;BME280;2563;52.242;7.956;2024-03-23T09:48:29;100006.75;;;9.14;100.00
5574;BME280;2563;52.242;7.956;2024-03-23T09:50:55;99999.78;;;9.49;100.00
5574;BME280;2563;52.242;7.956;2024-03-23T09:53:20;100001.41;;;9.53;100.00
5574;BME280;2563;52.242;7.956;2024-03-23T09:55:47;99996.56;;;10.29;100.00
5574;BME280;2563;52.242;7.956;2024-03-23T09:58:14;99999.47;;;10.18;100.00
5574;BME280;2563;52.242;7.956;2024-03-23T10:00:40;100003.31;;;9.45;100.00
5574;BME280;2563;52.242;7.956;2024-03-23T10:03:06;100017.75;;;8.87;100.00
5574;BME280;2563;52.242;7.956;2024-03-23T10:05:32;100020.56;;;8.42;100.00
5574;BME280;2563;52.242;7.956;2024-03-23T10:08:17;100015.41;;;8.43;100.00
5574;BME280;2563;52.242;7.956;2024-03-23T10:10:45;100024.81;;;8.05;100.00
5574;BME280;2563;52.242;7.956;2024-03-23T10:13:11;100015.56;;;9.04;100.00
5574;BME280;2563;52.242;7.956;2024-03-23T10:15:39;100005.88;;;10.84;100.00
5574;BME280;2563;52.242;7.956;2024-03-23T10:18:19;99992.16;;;11.56;100.00
5574;BME280;2563;52.242;7.956;2024-03-23T10:20:51;100011.34;;;10.75;100.00
5574;BME280;2563;52.242;7.956;2024-03-23T10:23:17;100021.81;;;10.44;100.00
5574;BME280;2563;52.242;7.956;2024-03-23T10:25:43;100023.94;;;9.73;100.00
5574;BME280;2563;52.242;7.956;2024-03-23T10:28:08;100041.25;;;9.04;100.00
5574;BME280;2563;52.242;7.956;2024-03-23T10:30:34;100032.75;;;8.32;100.00
5574;BME280;2563;52.242;7.956;2024-03-23T10:33:12;100029.75;;;8.13;100.00
5574;BME280;2563;52.242;7.956;2024-03-23T10:35:39;100031.19;;;8.25;100.00
5574;BME280;2563;52.242;7.956;2024-03-23T10:38:06;100029.16;;;8.41;100.00
5574;BME280;2563;52.242;7.956;2024-03-23T10:40:35;100024.59;;;8.52;100.00
5574;BME280;2563;52.242;7.956;2024-03-23T10:43:02;100031.66;;;8.78;100.00
5574;BME280;2563;52.242;7.956;2024-03-23T10:45:29;100014.53;;;10.57;100.00
5574;BME280;2563;52.242;7.956;2024-03-23T10:47:54;100020.69;;;11.03;100.00
5574;BME280;2563;52.242;7.956;2024-03-23T10:50:19;100022.53;;;11.24;100.00
5574;BME280;2563;52.242;7.956;2024-03-23T10:52:48;100018.69;;;10.61;100.00
5574;BME280;2563;52.242;7.956;2024-03-23T10:55:16;100029.56;;;10.14;100.00
5574;BME280;2563;52.242;7.956;2024-03-23T10:57:55;100041.25;;;9.96;100.00
5574;BME280;2563;52.242;7.956;2024-03-23T11:00:21;100036.13;;;9.96;100.00
5574;BME280;2563;52.242;7.956;2024-03-23T11:02:48;100032.63;;;12.01;100.00
5574;BME280;2563;52.242;7.956;2024-03-23T11:07:52;100045.13;;;13.57;100.00
5574;BME280;2563;52.242;7.956;2024-03-23T11:10:29;100046.59;;;10.47;100.00
5574;BME280;2563;52.242;7.956;2024-03-23T11:13:21;100071.13;;;9.40;100.00
5574;BME280;2563;52.242;7.956;2024-03-23T11:15:44;100072.78;;;8.38;100.00
5574;BME280;2563;52.242;7.956;2024-03-23T11:18:09;100073.09;;;6.93;100.00
5574;BME280;2563;52.242;7.956;2024-03-23T11:20:35;100065.41;;;6.41;100.00
5574;BME280;2563;52.242;7.956;2024-03-23T11:23:01;100059.84;;;6.12;100.00
5574;BME280;2563;52.242;7.956;2024-03-23T11:25:27;100044.06;;;6.45;100.00
5574;BME280;2563;52.242;7.956;2024-03-23T11:27:57;100033.63;;;6.58;100.00
5574;BME280;2563;52.242;7.956;2024-03-23T11:30:27;100021.53;;;6.67;100.00
5574;BME280;2563;52.242;7.956;2024-03-23T11:32:56;99991.75;;;8.66;100.00
5574;BME280;2563;52.242;7.956;2024-03-23T11:35:33;99985.78;;;8.66;100.00
5574;BME280;2563;52.242;7.956;2024-03-23T11:38:14;99977.28;;;9.87;100.00
5574;BME280;2563;52.242;7.956;2024-03-23T11:40:47;99988.63;;;9.50;100.00
5574;BME280;2563;52.242;7.956;2024-03-23T11:43:18;99976.44;;;10.92;100.00
5574;BME280;2563;52.242;7.956;2024-03-23T11:45:44;99979.19;;;12.05;100.00
5574;BME280;2563;52.242;7.956;2024-03-23T11:48:14;99990.75;;;12.17;100.00
5574;BME280;2563;52.242;7.956;2024-03-23T11:50:41;99997.91;;;11.88;100.00
5574;BME280;2563;52.242;7.956;2024-03-23T11:53:17;100002.81;;;11.23;100.00
5574;BME280;2563;52.242;7.956;2024-03-23T11:55:47;100008.19;;;10.67;100.00
5574;BME280;2563;52.242;7.956;2024-03-23T11:58:13;100010.31;;;9.99;100.00
5574;BME280;2563;52.242;7.956;2024-03-23T12:00:38;100016.25;;;9.12;100.00
5574;BME280;2563;52.242;7.956;2024-03-23T12:03:05;100015.75;;;8.98;100.00
5574;BME280;2563;52.242;7.956;2024-03-23T12:05:34;99998.50;;;9.03;100.00
5574;BME280;2563;52.242;7.956;2024-03-23T12:08:19;99997.81;;;8.97;100.00
5574;BME280;2563;52.242;7.956;2024-03-23T12:10:51;99990.88;;;8.67;100.00
5574;BME280;2563;52.242;7.956;2024-03-23T12:13:18;99982.06;;;9.10;100.00
5574;BME280;2563;52.242;7.956;2024-03-23T12:15:45;99962.09;;;9.79;100.00
5574;BME280;2563;52.242;7.956;2024-03-23T12:18:11;99972.81;;;9.64;100.00
5574;BME280;2563;52.242;7.956;2024-03-23T12:20:37;99997.53;;;8.75;100.00
5574;BME280;2563;52.242;7.956;2024-03-23T12:23:13;99998.81;;;8.21;100.00
5574;BME280;2563;52.242;7.956;2024-03-23T12:25:39;100020.03;;;7.48;100.00
5574;BME280;2563;52.242;7.956;2024-03-23T12:28:05;100034.94;;;6.81;100.00
5574;BME280;2563;52.242;7.956;2024-03-23T12:30:33;100049.22;;;5.76;100.00
5574;BME280;2563;52.242;7.956;2024-03-23T12:32:58;100045.06;;;4.89;100.00
5574;BME280;2563;52.242;7.956;2024-03-23T12:35:24;100043.72;;;4.48;100.00
5574;BME280;2563;52.242;7.956;2024-03-23T12:37:49;100020.84;;;4.37;100.00
5574;BME280;2563;52.242;7.956;2024-03-23T12:40:14;100010.69;;;4.34;100.00
5574;BME280;2563;52.242;7.956;2024-03-23T12:42:40;99990.19;;;4.50;100.00
5574;BME280;2563;52.242;7.956;2024-03-23T12:45:05;99973.00;;;4.70;100.00
5574;BME280;2563;52.242;7.956;2024-03-23T12:47:31;99959.22;;;4.91;100.00
5574;BME280;2563;52.242;7.956;2024-03-23T12:49:56;99938.44;;;5.23;100.00
5574;BME280;2563;52.242;7.956;2024-03-23T12:52:22;99915.78;;;5.62;100.00
5574;BME280;2563;52.242;7.956;2024-03-23T12:54:49;99895.75;;;6.46;100.00
5574;BME280;2563;52.242;7.956;2024-03-23T12:57:14;99863.44;;;8.02;100.00
5574;BME280;2563;52.242;7.956;2024-03-23T12:59:39;99846.75;;;9.42;100.00
5574;BME280;2563;52.242;7.956;2024-03-23T13:02:05;99853.38;;;10.29;100.00
5574;BME280;2563;52.242;7.956;2024-03-23T13:04:31;99855.84;;;11.04;100.00
5574;BME280;2563;52.242;7.956;2024-03-23T13:06:56;99872.88;;;11.31;100.00
5574;BME280;2563;52.242;7.956;2024-03-23T13:09:22;99888.75;;;11.42;100.00
5574;BME280;2563;52.242;7.956;2024-03-23T13:11:47;99921.84;;;11.31;100.00
5574;BME280;2563;52.242;7.956;2024-03-23T13:14:12;99927.72;;;11.56;100.00
5574;BME280;2563;52.242;7.956;2024-03-23T13:16:41;99938.72;;;11.61;100.00
5574;BME280;2563;52.242;7.956;2024-03-23T13:19:07;99944.41;;;12.36;100.00
5574;BME280;2563;52.242;7.956;2024-03-23T13:21:32;99969.06;;;11.06;100.00
5574;BME280;2563;52.242;7.956;2024-03-23T13:23:57;99980.22;;;9.75;100.00
5574;BME280;2563;52.242;7.956;2024-03-23T13:26:23;99986.59;;;9.32;100.00
5574;BME280;2563;52.242;7.956;2024-03-23T13:28:48;99989.44;;;8.90;100.00
5574;BME280;2563;52.242;7.956;2024-03-23T13:31:13;99974.22;;;9.74;100.00
5574;BME280;2563;52.242;7.956;2024-03-23T13:33:39;99966.63;;;11.03;100.00
5574;BME280;2563;52.242;7.956;2024-03-23T13:36:05;99966.84;;;11.20;100.00
5574;BME280;2563;52.242;7.956;2024-03-23T13:38:30;99963.06;;;12.00;100.00
5574;BME280;2563;52.242;7.956;2024-03-23T13:40:57;99976.69;;;11.56;100.00
5574;BME280;2563;52.242;7.956;2024-03-23T13:43:24;99970.91;;;11.04;100.00
5574;BME280;2563;52.242;7.956;2024-03-23T13:45:54;99978.88;;;10.71;100.00
5574;BME280;2563;52.242;7.956;2024-03-23T13:48:20;99990.09;;;10.43;100.00
5574;BME280;2563;52.242;7.956;2024-03-23T13:50:47;100000.03;;;9.99;100.00
5574;BME280;2563;52.242;7.956;2024-03-23T13:53:15;100003.78;;;9.89;100.00
5574;BME280;2563;52.242;7.956;2024-03-23T13:55:47;100014.13;;;10.69;100.00
5574;BME280;2563;52.242;7.956;2024-03-23T13:58:14;100009.88;;;11.18;100.00
5574;BME280;2563;52.242;7.956;2024-03-23T14:00:39;100024.88;;;11.78;100.00
5574;BME280;2563;52.242;7.956;2024-03-23T14:03:05;100041.47;;;9.89;100.00
5574;BME280;2563;52.242;7.956;2024-03-23T14:05:30;100041.97;;;8.77;100.00
5574;BME280;2563;52.242;7.956;2024-03-23T14:07:56;100059.03;;;8.42;100.00
5574;BME280;2563;52.242;7.956;2024-03-23T14:10:21;100069.91;;;8.14;100.00